sensor_id;sensor_type;location;lat;lon;timestamp;P1;durP1;ratioP1;P2;durP2;ratioP2
75864;SDS011;64510;46.704;38.274;2023-02-28T00:01:28;24.75;;;9.75;;
75864;SDS011;64510;46.704;38.274;2023-02-28T00:03:54;27.70;;;10.43;;
75864;SDS011;64510;46.704;38.274;2023-02-28T00:06:21;18.30;;;7.55;;
75864;SDS011;64510;46.704;38.274;2023-02-28T00:08:47;24.30;;;8.32;;
75864;SDS011;64510;46.704;38.274;2023-02-28T00:11:13;19.83;;;8.32;;
75864;SDS011;64510;46.704;38.274;2023-02-28T00:13:41;22.30;;;8.68;;
75864;SDS011;64510;46.704;38.274;2023-02-28T00:18:38;13.82;;;6.78;;
75864;SDS011;64510;46.704;38.274;2023-02-28T00:21:05;12.90;;;7.20;;
75864;SDS011;64510;46.704;38.274;2023-02-28T00:23:32;13.48;;;7.45;;
75864;SDS011;64510;46.704;38.274;2023-02-28T00:25:58;17.40;;;7.15;;
75864;SDS011;64510;46.704;38.274;2023-02-28T00:28:24;21.55;;;8.27;;
75864;SDS011;64510;46.704;38.274;2023-02-28T00:30:50;15.98;;;8.27;;
75864;SDS011;64510;46.704;38.274;2023-02-28T00:33:16;28.60;;;10.13;;
75864;SDS011;64510;46.704;38.274;2023-02-28T00:35:42;26.45;;;9.35;;
75864;SDS011;64510;46.704;38.274;2023-02-28T00:38:08;25.95;;;9.07;;
75864;SDS011;64510;46.704;38.274;2023-02-28T00:40:34;16.52;;;8.43;;
75864;SDS011;64510;46.704;38.274;2023-02-28T00:43:00;18.17;;;8.65;;
75864;SDS011;64510;46.704;38.274;2023-02-28T00:45:26;18.88;;;7.40;;
75864;SDS011;64510;46.704;38.274;2023-02-28T00:47:52;23.63;;;8.52;;
75864;SDS011;64510;46.704;38.274;2023-02-28T00:50:18;18.77;;;9.65;;
75864;SDS011;64510;46.704;38.274;2023-02-28T00:52:45;18.23;;;8.82;;
75864;SDS011;64510;46.704;38.274;2023-02-28T00:55:13;17.70;;;8.30;;
75864;SDS011;64510;46.704;38.274;2023-02-28T00:57:39;23.10;;;10.20;;
75864;SDS011;64510;46.704;38.274;2023-02-28T01:00:05;20.58;;;8.45;;
75864;SDS011;64510;46.704;38.274;2023-02-28T01:02:32;18.30;;;9.18;;
75864;SDS011;64510;46.704;38.274;2023-02-28T01:04:58;22.60;;;8.25;;
75864;SDS011;64510;46.704;38.274;2023-02-28T01:07:24;18.95;;;9.30;;
75864;SDS011;64510;46.704;38.274;2023-02-28T01:09:50;21.80;;;10.25;;
75864;SDS011;64510;46.704;38.274;2023-02-28T01:12:16;25.92;;;9.18;;
75864;SDS011;64510;46.704;38.274;2023-02-28T01:14:42;18.00;;;8.60;;
75864;SDS011;64510;46.704;38.274;2023-02-28T01:17:08;19.77;;;9.30;;
75864;SDS011;64510;46.704;38.274;2023-02-28T01:19:34;17.60;;;8.63;;
75864;SDS011;64510;46.704;38.274;2023-02-28T01:22:02;18.70;;;8.75;;
75864;SDS011;64510;46.704;38.274;2023-02-28T01:24:28;17.38;;;9.68;;
75864;SDS011;64510;46.704;38.274;2023-02-28T01:26:54;22.83;;;9.38;;
75864;SDS011;64510;46.704;38.274;2023-02-28T01:29:20;30.77;;;10.98;;
75864;SDS011;64510;46.704;38.274;2023-02-28T01:31:46;19.83;;;9.95;;
75864;SDS011;64510;46.704;38.274;2023-02-28T01:34:12;23.35;;;10.10;;
75864;SDS011;64510;46.704;38.274;2023-02-28T01:36:38;25.55;;;10.00;;
75864;SDS011;64510;46.704;38.274;2023-02-28T01:39:04;21.52;;;9.68;;
75864;SDS011;64510;46.704;38.274;2023-02-28T01:41:30;18.63;;;9.10;;
75864;SDS011;64510;46.704;38.274;2023-02-28T01:47:02;22.33;;;9.48;;
75864;SDS011;64510;46.704;38.274;2023-02-28T01:49:28;27.42;;;10.98;;
75864;SDS011;64510;46.704;38.274;2023-02-28T01:51:54;21.42;;;9.77;;
75864;SDS011;64510;46.704;38.274;2023-02-28T01:54:25;22.25;;;11.18;;
75864;SDS011;64510;46.704;38.274;2023-02-28T01:56:58;25.15;;;10.13;;
75864;SDS011;64510;46.704;38.274;2023-02-28T01:59:48;19.88;;;10.27;;
75864;SDS011;64510;46.704;38.274;2023-02-28T02:02:20;22.85;;;10.93;;
75864;SDS011;64510;46.704;38.274;2023-02-28T02:04:53;25.30;;;10.75;;
75864;SDS011;64510;46.704;38.274;2023-02-28T02:07:22;24.77;;;9.65;;
75864;SDS011;64510;46.704;38.274;2023-02-28T02:09:50;19.50;;;10.20;;
75864;SDS011;64510;46.704;38.274;2023-02-28T02:15:16;19.02;;;10.27;;
75864;SDS011;64510;46.704;38.274;2023-02-28T02:17:52;17.38;;;8.02;;
75864;SDS011;64510;46.704;38.274;2023-02-28T02:34:09;26.83;;;10.38;;
75864;SDS011;64510;46.704;38.274;2023-02-28T02:37:27;21.85;;;9.98;;
75864;SDS011;64510;46.704;38.274;2023-02-28T02:40:20;21.58;;;9.93;;
75864;SDS011;64510;46.704;38.274;2023-02-28T02:43:03;24.20;;;9.57;;
75864;SDS011;64510;46.704;38.274;2023-02-28T02:45:49;24.73;;;10.02;;
75864;SDS011;64510;46.704;38.274;2023-02-28T02:48:21;22.10;;;9.13;;
75864;SDS011;64510;46.704;38.274;2023-02-28T02:50:54;21.52;;;9.82;;
75864;SDS011;64510;46.704;38.274;2023-02-28T02:55:52;19.48;;;9.85;;
75864;SDS011;64510;46.704;38.274;2023-02-28T02:58:22;21.95;;;9.77;;
75864;SDS011;64510;46.704;38.274;2023-02-28T03:03:19;16.35;;;8.27;;
75864;SDS011;64510;46.704;38.274;2023-02-28T03:05:58;21.25;;;9.45;;
75864;SDS011;64510;46.704;38.274;2023-02-28T03:08:26;20.48;;;9.52;;
75864;SDS011;64510;46.704;38.274;2023-02-28T03:10:59;19.45;;;9.48;;
75864;SDS011;64510;46.704;38.274;2023-02-28T03:22:14;16.83;;;7.97;;
75864;SDS011;64510;46.704;38.274;2023-02-28T03:25:10;23.73;;;9.55;;
75864;SDS011;64510;46.704;38.274;2023-02-28T03:33:14;22.80;;;8.70;;
75864;SDS011;64510;46.704;38.274;2023-02-28T03:35:51;27.63;;;10.77;;
75864;SDS011;64510;46.704;38.274;2023-02-28T03:38:22;16.80;;;8.68;;
75864;SDS011;64510;46.704;38.274;2023-02-28T03:41:10;22.55;;;8.55;;
75864;SDS011;64510;46.704;38.274;2023-02-28T03:44:30;17.45;;;8.95;;
75864;SDS011;64510;46.704;38.274;2023-02-28T03:47:00;32.05;;;9.38;;
75864;SDS011;64510;46.704;38.274;2023-02-28T03:49:33;19.88;;;8.88;;
75864;SDS011;64510;46.704;38.274;2023-02-28T03:52:08;20.55;;;9.18;;
75864;SDS011;64510;46.704;38.274;2023-02-28T03:54:40;22.02;;;9.40;;
75864;SDS011;64510;46.704;38.274;2023-02-28T03:57:20;21.38;;;9.77;;
75864;SDS011;64510;46.704;38.274;2023-02-28T04:00:04;20.17;;;8.95;;
75864;SDS011;64510;46.704;38.274;2023-02-28T04:02:46;20.02;;;7.78;;
75864;SDS011;64510;46.704;38.274;2023-02-28T04:05:19;23.15;;;9.50;;
75864;SDS011;64510;46.704;38.274;2023-02-28T04:07:45;19.80;;;10.65;;
75864;SDS011;64510;46.704;38.274;2023-02-28T04:10:12;15.50;;;7.85;;
75864;SDS011;64510;46.704;38.274;2023-02-28T04:12:38;21.25;;;8.57;;
75864;SDS011;64510;46.704;38.274;2023-02-28T04:15:04;26.00;;;10.60;;
75864;SDS011;64510;46.704;38.274;2023-02-28T04:17:31;25.13;;;11.35;;
75864;SDS011;64510;46.704;38.274;2023-02-28T04:19:57;25.35;;;10.52;;
75864;SDS011;64510;46.704;38.274;2023-02-28T04:22:23;23.10;;;10.43;;
75864;SDS011;64510;46.704;38.274;2023-02-28T04:24:51;30.02;;;10.43;;
75864;SDS011;64510;46.704;38.274;2023-02-28T04:27:20;24.42;;;10.60;;
75864;SDS011;64510;46.704;38.274;2023-02-28T04:29:46;18.20;;;10.43;;
75864;SDS011;64510;46.704;38.274;2023-02-28T04:32:12;17.58;;;9.45;;
75864;SDS011;64510;46.704;38.274;2023-02-28T04:34:38;19.45;;;9.02;;
75864;SDS011;64510;46.704;38.274;2023-02-28T04:37:04;23.13;;;9.38;;
75864;SDS011;64510;46.704;38.274;2023-02-28T04:39:34;18.05;;;8.57;;
75864;SDS011;64510;46.704;38.274;2023-02-28T04:42:00;24.03;;;9.90;;
75864;SDS011;64510;46.704;38.274;2023-02-28T04:44:26;16.60;;;7.70;;
75864;SDS011;64510;46.704;38.274;2023-02-28T04:46:52;15.93;;;7.30;;
75864;SDS011;64510;46.704;38.274;2023-02-28T04:49:18;16.27;;;8.27;;
75864;SDS011;64510;46.704;38.274;2023-02-28T04:51:44;18.88;;;8.43;;
75864;SDS011;64510;46.704;38.274;2023-02-28T04:54:10;16.83;;;8.77;;
75864;SDS011;64510;46.704;38.274;2023-02-28T04:56:36;25.10;;;9.48;;
75864;SDS011;64510;46.704;38.274;2023-02-28T04:59:01;21.95;;;9.00;;
75864;SDS011;64510;46.704;38.274;2023-02-28T05:01:28;15.25;;;7.32;;
75864;SDS011;64510;46.704;38.274;2023-02-28T05:03:57;26.73;;;8.15;;
75864;SDS011;64510;46.704;38.274;2023-02-28T05:06:25;18.17;;;9.10;;
75864;SDS011;64510;46.704;38.274;2023-02-28T05:08:52;25.20;;;11.05;;
75864;SDS011;64510;46.704;38.274;2023-02-28T05:13:47;16.85;;;7.93;;
75864;SDS011;64510;46.704;38.274;2023-02-28T05:16:14;22.25;;;8.55;;
75864;SDS011;64510;46.704;38.274;2023-02-28T05:18:40;25.08;;;10.20;;
75864;SDS011;64510;46.704;38.274;2023-02-28T05:21:14;18.58;;;7.45;;
75864;SDS011;64510;46.704;38.274;2023-02-28T05:23:50;20.23;;;7.82;;
75864;SDS011;64510;46.704;38.274;2023-02-28T05:26:17;17.50;;;9.18;;
75864;SDS011;64510;46.704;38.274;2023-02-28T05:28:43;21.92;;;8.95;;
75864;SDS011;64510;46.704;38.274;2023-02-28T05:31:12;15.07;;;6.82;;
75864;SDS011;64510;46.704;38.274;2023-02-28T05:33:39;19.17;;;8.40;;
75864;SDS011;64510;46.704;38.274;2023-02-28T05:36:05;18.58;;;9.05;;
75864;SDS011;64510;46.704;38.274;2023-02-28T05:38:31;13.50;;;6.93;;
75864;SDS011;64510;46.704;38.274;2023-02-28T05:40:57;21.88;;;8.10;;
75864;SDS011;64510;46.704;38.274;2023-02-28T05:43:23;9.43;;;6.18;;
75864;SDS011;64510;46.704;38.274;2023-02-28T05:45:50;15.60;;;6.35;;
75864;SDS011;64510;46.704;38.274;2023-02-28T05:48:15;13.07;;;6.93;;
75864;SDS011;64510;46.704;38.274;2023-02-28T05:50:43;12.85;;;7.05;;
75864;SDS011;64510;46.704;38.274;2023-02-28T05:53:11;42.75;;;20.20;;
75864;SDS011;64510;46.704;38.274;2023-02-28T05:55:37;24.23;;;10.95;;
75864;SDS011;64510;46.704;38.274;2023-02-28T05:58:03;21.90;;;10.25;;
75864;SDS011;64510;46.704;38.274;2023-02-28T06:00:29;20.40;;;8.20;;
75864;SDS011;64510;46.704;38.274;2023-02-28T06:02:55;18.92;;;8.38;;
75864;SDS011;64510;46.704;38.274;2023-02-28T06:05:23;16.05;;;6.25;;
75864;SDS011;64510;46.704;38.274;2023-02-28T06:07:49;12.88;;;7.45;;
75864;SDS011;64510;46.704;38.274;2023-02-28T06:10:15;12.85;;;7.88;;
75864;SDS011;64510;46.704;38.274;2023-02-28T06:12:41;13.75;;;6.90;;
75864;SDS011;64510;46.704;38.274;2023-02-28T06:15:10;11.05;;;6.00;;
75864;SDS011;64510;46.704;38.274;2023-02-28T06:17:38;13.90;;;5.78;;
75864;SDS011;64510;46.704;38.274;2023-02-28T06:20:04;10.55;;;6.57;;
75864;SDS011;64510;46.704;38.274;2023-02-28T06:22:31;17.80;;;6.88;;
75864;SDS011;64510;46.704;38.274;2023-02-28T06:24:57;12.20;;;5.78;;
75864;SDS011;64510;46.704;38.274;2023-02-28T06:27:23;13.35;;;6.85;;
75864;SDS011;64510;46.704;38.274;2023-02-28T06:29:48;12.55;;;8.13;;
75864;SDS011;64510;46.704;38.274;2023-02-28T06:32:18;12.38;;;8.10;;
75864;SDS011;64510;46.704;38.274;2023-02-28T06:34:44;15.98;;;8.38;;
75864;SDS011;64510;46.704;38.274;2023-02-28T06:37:10;14.07;;;6.95;;
75864;SDS011;64510;46.704;38.274;2023-02-28T06:39:36;10.23;;;6.07;;
75864;SDS011;64510;46.704;38.274;2023-02-28T06:42:02;9.75;;;5.97;;
75864;SDS011;64510;46.704;38.274;2023-02-28T06:44:29;15.88;;;6.78;;
75864;SDS011;64510;46.704;38.274;2023-02-28T06:47:04;13.48;;;5.72;;
75864;SDS011;64510;46.704;38.274;2023-02-28T06:49:31;8.63;;;4.93;;
75864;SDS011;64510;46.704;38.274;2023-02-28T06:51:59;8.95;;;4.82;;
75864;SDS011;64510;46.704;38.274;2023-02-28T06:54:25;9.82;;;4.57;;
75864;SDS011;64510;46.704;38.274;2023-02-28T06:56:51;10.90;;;6.32;;
75864;SDS011;64510;46.704;38.274;2023-02-28T06:59:18;13.65;;;7.45;;
75864;SDS011;64510;46.704;38.274;2023-02-28T07:01:44;17.00;;;8.32;;
75864;SDS011;64510;46.704;38.274;2023-02-28T07:04:10;13.20;;;7.25;;
75864;SDS011;64510;46.704;38.274;2023-02-28T07:06:38;11.77;;;5.70;;
75864;SDS011;64510;46.704;38.274;2023-02-28T07:09:04;11.95;;;6.25;;
75864;SDS011;64510;46.704;38.274;2023-02-28T07:11:30;13.27;;;7.18;;
75864;SDS011;64510;46.704;38.274;2023-02-28T07:13:56;11.82;;;7.22;;
75864;SDS011;64510;46.704;38.274;2023-02-28T07:16:23;11.82;;;6.78;;
75864;SDS011;64510;46.704;38.274;2023-02-28T07:18:51;12.15;;;6.38;;
75864;SDS011;64510;46.704;38.274;2023-02-28T07:21:18;13.65;;;6.18;;
75864;SDS011;64510;46.704;38.274;2023-02-28T07:23:44;12.77;;;6.55;;
75864;SDS011;64510;46.704;38.274;2023-02-28T07:26:14;12.40;;;6.13;;
75864;SDS011;64510;46.704;38.274;2023-02-28T07:28:42;14.85;;;7.55;;
75864;SDS011;64510;46.704;38.274;2023-02-28T07:31:09;16.10;;;6.25;;
75864;SDS011;64510;46.704;38.274;2023-02-28T07:33:36;10.52;;;5.75;;
75864;SDS011;64510;46.704;38.274;2023-02-28T07:36:04;14.38;;;6.75;;
75864;SDS011;64510;46.704;38.274;2023-02-28T07:38:35;15.00;;;6.05;;
75864;SDS011;64510;46.704;38.274;2023-02-28T07:41:02;15.32;;;7.05;;
75864;SDS011;64510;46.704;38.274;2023-02-28T07:43:33;19.70;;;7.43;;
75864;SDS011;64510;46.704;38.274;2023-02-28T07:46:10;20.40;;;7.78;;
75864;SDS011;64510;46.704;38.274;2023-02-28T07:48:38;16.08;;;6.95;;
75864;SDS011;64510;46.704;38.274;2023-02-28T07:51:04;14.38;;;7.05;;
75864;SDS011;64510;46.704;38.274;2023-02-28T07:53:30;9.98;;;7.03;;
75864;SDS011;64510;46.704;38.274;2023-02-28T07:55:56;19.08;;;7.22;;
75864;SDS011;64510;46.704;38.274;2023-02-28T07:58:24;20.65;;;7.70;;
75864;SDS011;64510;46.704;38.274;2023-02-28T08:00:51;22.27;;;8.02;;
75864;SDS011;64510;46.704;38.274;2023-02-28T08:03:18;28.95;;;8.88;;
75864;SDS011;64510;46.704;38.274;2023-02-28T08:05:44;27.92;;;8.30;;
75864;SDS011;64510;46.704;38.274;2023-02-28T08:08:10;45.00;;;11.27;;
75864;SDS011;64510;46.704;38.274;2023-02-28T08:10:37;33.78;;;11.38;;
75864;SDS011;64510;46.704;38.274;2023-02-28T08:13:03;25.92;;;9.48;;
75864;SDS011;64510;46.704;38.274;2023-02-28T08:15:29;24.92;;;10.25;;
75864;SDS011;64510;46.704;38.274;2023-02-28T08:17:55;23.63;;;11.25;;
75864;SDS011;64510;46.704;38.274;2023-02-28T08:20:22;21.45;;;7.07;;
75864;SDS011;64510;46.704;38.274;2023-02-28T08:22:49;25.92;;;10.95;;
75864;SDS011;64510;46.704;38.274;2023-02-28T08:25:15;33.90;;;13.18;;
75864;SDS011;64510;46.704;38.274;2023-02-28T08:27:41;29.08;;;12.18;;
75864;SDS011;64510;46.704;38.274;2023-02-28T08:30:07;26.92;;;11.40;;
75864;SDS011;64510;46.704;38.274;2023-02-28T08:32:35;21.90;;;10.30;;
75864;SDS011;64510;46.704;38.274;2023-02-28T08:35:01;28.77;;;10.77;;
75864;SDS011;64510;46.704;38.274;2023-02-28T08:37:28;29.95;;;11.25;;
75864;SDS011;64510;46.704;38.274;2023-02-28T08:39:54;26.73;;;12.45;;
75864;SDS011;64510;46.704;38.274;2023-02-28T08:42:20;26.30;;;12.30;;
75864;SDS011;64510;46.704;38.274;2023-02-28T08:44:46;32.58;;;12.25;;
75864;SDS011;64510;46.704;38.274;2023-02-28T08:47:12;27.45;;;12.43;;
75864;SDS011;64510;46.704;38.274;2023-02-28T08:49:38;31.33;;;12.73;;
75864;SDS011;64510;46.704;38.274;2023-02-28T08:52:03;25.73;;;12.20;;
75864;SDS011;64510;46.704;38.274;2023-02-28T08:54:29;32.17;;;12.88;;
75864;SDS011;64510;46.704;38.274;2023-02-28T08:56:57;29.38;;;11.77;;
75864;SDS011;64510;46.704;38.274;2023-02-28T08:59:23;31.45;;;14.23;;
75864;SDS011;64510;46.704;38.274;2023-02-28T09:01:48;37.55;;;14.98;;
75864;SDS011;64510;46.704;38.274;2023-02-28T09:04:14;30.45;;;13.82;;
75864;SDS011;64510;46.704;38.274;2023-02-28T09:06:40;28.40;;;12.55;;
75864;SDS011;64510;46.704;38.274;2023-02-28T09:09:06;30.23;;;12.07;;
75864;SDS011;64510;46.704;38.274;2023-02-28T09:11:33;35.13;;;15.07;;
75864;SDS011;64510;46.704;38.274;2023-02-28T09:14:00;43.22;;;17.73;;
75864;SDS011;64510;46.704;38.274;2023-02-28T09:16:28;47.80;;;18.38;;
75864;SDS011;64510;46.704;38.274;2023-02-28T09:18:56;39.70;;;13.85;;
75864;SDS011;64510;46.704;38.274;2023-02-28T09:21:22;44.25;;;18.27;;
75864;SDS011;64510;46.704;38.274;2023-02-28T09:23:48;46.08;;;19.55;;
75864;SDS011;64510;46.704;38.274;2023-02-28T09:26:16;33.97;;;14.35;;
75864;SDS011;64510;46.704;38.274;2023-02-28T09:28:44;50.22;;;18.27;;
75864;SDS011;64510;46.704;38.274;2023-02-28T09:31:14;44.85;;;16.63;;
75864;SDS011;64510;46.704;38.274;2023-02-28T09:33:46;59.45;;;21.08;;
75864;SDS011;64510;46.704;38.274;2023-02-28T09:36:16;54.25;;;18.42;;
75864;SDS011;64510;46.704;38.274;2023-02-28T09:38:42;58.10;;;20.25;;
75864;SDS011;64510;46.704;38.274;2023-02-28T09:41:17;61.50;;;20.60;;
75864;SDS011;64510;46.704;38.274;2023-02-28T09:43:47;48.58;;;18.65;;
75864;SDS011;64510;46.704;38.274;2023-02-28T09:48:57;41.25;;;17.50;;
75864;SDS011;64510;46.704;38.274;2023-02-28T09:54:29;47.47;;;17.63;;
75864;SDS011;64510;46.704;38.274;2023-02-28T09:57:01;29.38;;;13.40;;
75864;SDS011;64510;46.704;38.274;2023-02-28T10:02:34;58.92;;;19.10;;
75864;SDS011;64510;46.704;38.274;2023-02-28T10:05:14;51.15;;;19.02;;
75864;SDS011;64510;46.704;38.274;2023-02-28T10:10:37;54.45;;;20.70;;
75864;SDS011;64510;46.704;38.274;2023-02-28T10:18:57;67.50;;;21.60;;
75864;SDS011;64510;46.704;38.274;2023-02-28T10:21:36;57.78;;;22.88;;
75864;SDS011;64510;46.704;38.274;2023-02-28T10:26:43;60.78;;;20.10;;
75864;SDS011;64510;46.704;38.274;2023-02-28T10:29:12;57.45;;;20.48;;
75864;SDS011;64510;46.704;38.274;2023-02-28T10:31:39;49.97;;;16.83;;
75864;SDS011;64510;46.704;38.274;2023-02-28T10:34:06;46.28;;;17.30;;
75864;SDS011;64510;46.704;38.274;2023-02-28T10:36:33;56.97;;;20.63;;
75864;SDS011;64510;46.704;38.274;2023-02-28T10:38:58;42.25;;;16.27;;
75864;SDS011;64510;46.704;38.274;2023-02-28T10:41:32;31.38;;;13.27;;
75864;SDS011;64510;46.704;38.274;2023-02-28T10:44:15;47.83;;;17.92;;
75864;SDS011;64510;46.704;38.274;2023-02-28T10:46:46;43.50;;;17.77;;
75864;SDS011;64510;46.704;38.274;2023-02-28T10:49:17;51.47;;;16.73;;
75864;SDS011;64510;46.704;38.274;2023-02-28T10:51:47;38.08;;;12.65;;
75864;SDS011;64510;46.704;38.274;2023-02-28T10:54:26;27.83;;;13.57;;
75864;SDS011;64510;46.704;38.274;2023-02-28T11:02:58;33.63;;;12.50;;
75864;SDS011;64510;46.704;38.274;2023-02-28T11:05:28;28.70;;;12.02;;
75864;SDS011;64510;46.704;38.274;2023-02-28T11:07:58;27.33;;;13.02;;
75864;SDS011;64510;46.704;38.274;2023-02-28T11:10:25;30.48;;;9.63;;
75864;SDS011;64510;46.704;38.274;2023-02-28T11:12:55;29.17;;;11.27;;
75864;SDS011;64510;46.704;38.274;2023-02-28T11:15:23;34.30;;;13.40;;
75864;SDS011;64510;46.704;38.274;2023-02-28T11:17:55;40.85;;;12.40;;
75864;SDS011;64510;46.704;38.274;2023-02-28T11:23:13;26.90;;;12.32;;
75864;SDS011;64510;46.704;38.274;2023-02-28T11:25:41;29.90;;;12.30;;
75864;SDS011;64510;46.704;38.274;2023-02-28T11:28:33;17.80;;;7.70;;
75864;SDS011;64510;46.704;38.274;2023-02-28T11:31:21;23.08;;;8.52;;
75864;SDS011;64510;46.704;38.274;2023-02-28T11:36:24;22.48;;;10.40;;
75864;SDS011;64510;46.704;38.274;2023-02-28T11:38:54;32.92;;;13.50;;
75864;SDS011;64510;46.704;38.274;2023-02-28T11:47:13;30.35;;;11.65;;
75864;SDS011;64510;46.704;38.274;2023-02-28T11:49:50;28.88;;;13.63;;
75864;SDS011;64510;46.704;38.274;2023-02-28T11:52:40;31.77;;;13.30;;
75864;SDS011;64510;46.704;38.274;2023-02-28T11:55:14;20.58;;;10.80;;
75864;SDS011;64510;46.704;38.274;2023-02-28T12:01:17;35.25;;;12.65;;
75864;SDS011;64510;46.704;38.274;2023-02-28T12:19:10;32.05;;;13.48;;
75864;SDS011;64510;46.704;38.274;2023-02-28T12:24:38;17.88;;;10.90;;
75864;SDS011;64510;46.704;38.274;2023-02-28T12:27:07;35.95;;;13.98;;
75864;SDS011;64510;46.704;38.274;2023-02-28T12:35:01;33.35;;;12.75;;
75864;SDS011;64510;46.704;38.274;2023-02-28T12:37:41;35.47;;;11.95;;
75864;SDS011;64510;46.704;38.274;2023-02-28T12:40:13;33.88;;;15.07;;
75864;SDS011;64510;46.704;38.274;2023-02-28T12:42:46;42.15;;;12.73;;
75864;SDS011;64510;46.704;38.274;2023-02-28T12:45:20;34.63;;;14.55;;
75864;SDS011;64510;46.704;38.274;2023-02-28T12:47:51;38.53;;;14.00;;
75864;SDS011;64510;46.704;38.274;2023-02-28T12:50:29;31.95;;;12.95;;
75864;SDS011;64510;46.704;38.274;2023-02-28T12:53:01;24.35;;;10.98;;
75864;SDS011;64510;46.704;38.274;2023-02-28T12:55:41;36.42;;;13.13;;
75864;SDS011;64510;46.704;38.274;2023-02-28T12:58:17;30.23;;;12.43;;
75864;SDS011;64510;46.704;38.274;2023-02-28T13:01:04;21.20;;;10.63;;
75864;SDS011;64510;46.704;38.274;2023-02-28T13:09:30;20.63;;;10.55;;
75864;SDS011;64510;46.704;38.274;2023-02-28T13:11:56;27.42;;;9.85;;
75864;SDS011;64510;46.704;38.274;2023-02-28T13:20:16;13.07;;;8.15;;
75864;SDS011;64510;46.704;38.274;2023-02-28T13:22:37;28.63;;;12.70;;
75864;SDS011;64510;46.704;38.274;2023-02-28T13:27:47;17.63;;;9.95;;
75864;SDS011;64510;46.704;38.274;2023-02-28T13:33:21;21.38;;;12.18;;
75864;SDS011;64510;46.704;38.274;2023-02-28T13:36:00;22.27;;;8.68;;
75864;SDS011;64510;46.704;38.274;2023-02-28T13:38:44;19.55;;;10.48;;
75864;SDS011;64510;46.704;38.274;2023-02-28T13:46:26;14.75;;;8.57;;
75864;SDS011;64510;46.704;38.274;2023-02-28T13:48:52;19.55;;;8.95;;
75864;SDS011;64510;46.704;38.274;2023-02-28T13:54:29;21.63;;;10.35;;
75864;SDS011;64510;46.704;38.274;2023-02-28T13:59:33;23.63;;;10.48;;
75864;SDS011;64510;46.704;38.274;2023-02-28T14:04:53;19.23;;;9.25;;
75864;SDS011;64510;46.704;38.274;2023-02-28T14:07:30;30.50;;;11.45;;
75864;SDS011;64510;46.704;38.274;2023-02-28T14:18:05;22.83;;;11.25;;
75864;SDS011;64510;46.704;38.274;2023-02-28T14:20:40;17.88;;;8.88;;
75864;SDS011;64510;46.704;38.274;2023-02-28T14:25:44;23.58;;;9.60;;
75864;SDS011;64510;46.704;38.274;2023-02-28T14:28:40;21.90;;;9.10;;
75864;SDS011;64510;46.704;38.274;2023-02-28T14:31:34;10.60;;;6.75;;
75864;SDS011;64510;46.704;38.274;2023-02-28T14:36:40;17.35;;;9.25;;
75864;SDS011;64510;46.704;38.274;2023-02-28T14:39:11;20.23;;;9.73;;
75864;SDS011;64510;46.704;38.274;2023-02-28T14:41:40;12.10;;;6.47;;
75864;SDS011;64510;46.704;38.274;2023-02-28T14:44:17;16.63;;;8.45;;
75864;SDS011;64510;46.704;38.274;2023-02-28T14:46:46;27.48;;;10.50;;
75864;SDS011;64510;46.704;38.274;2023-02-28T14:51:50;19.48;;;9.80;;
75864;SDS011;64510;46.704;38.274;2023-02-28T14:54:26;19.88;;;10.15;;
75864;SDS011;64510;46.704;38.274;2023-02-28T14:56:53;28.63;;;11.38;;
75864;SDS011;64510;46.704;38.274;2023-02-28T14:59:27;17.30;;;10.13;;
75864;SDS011;64510;46.704;38.274;2023-02-28T15:04:51;24.98;;;11.63;;
75864;SDS011;64510;46.704;38.274;2023-02-28T15:07:22;30.88;;;9.25;;
75864;SDS011;64510;46.704;38.274;2023-02-28T15:12:38;14.60;;;7.80;;
75864;SDS011;64510;46.704;38.274;2023-02-28T15:15:06;10.73;;;6.40;;
75864;SDS011;64510;46.704;38.274;2023-02-28T15:17:44;21.52;;;11.63;;
75864;SDS011;64510;46.704;38.274;2023-02-28T15:20:14;12.48;;;8.15;;
75864;SDS011;64510;46.704;38.274;2023-02-28T15:22:41;19.15;;;9.52;;
75864;SDS011;64510;46.704;38.274;2023-02-28T15:25:09;17.95;;;8.32;;
75864;SDS011;64510;46.704;38.274;2023-02-28T15:27:45;14.70;;;9.00;;
75864;SDS011;64510;46.704;38.274;2023-02-28T15:30:16;11.65;;;7.03;;
75864;SDS011;64510;46.704;38.274;2023-02-28T15:32:44;14.90;;;8.63;;
75864;SDS011;64510;46.704;38.274;2023-02-28T15:35:27;19.48;;;8.35;;
75864;SDS011;64510;46.704;38.274;2023-02-28T15:40:43;15.02;;;8.48;;
75864;SDS011;64510;46.704;38.274;2023-02-28T15:46:06;20.75;;;9.60;;
75864;SDS011;64510;46.704;38.274;2023-02-28T15:48:36;15.45;;;7.40;;
75864;SDS011;64510;46.704;38.274;2023-02-28T15:54:00;14.85;;;5.88;;
75864;SDS011;64510;46.704;38.274;2023-02-28T15:56:35;9.10;;;5.38;;
75864;SDS011;64510;46.704;38.274;2023-02-28T15:59:14;12.50;;;7.35;;
75864;SDS011;64510;46.704;38.274;2023-02-28T16:01:43;11.30;;;7.15;;
75864;SDS011;64510;46.704;38.274;2023-02-28T16:04:16;11.88;;;7.13;;
75864;SDS011;64510;46.704;38.274;2023-02-28T16:09:28;11.95;;;7.30;;
75864;SDS011;64510;46.704;38.274;2023-02-28T16:11:56;15.13;;;7.75;;
75864;SDS011;64510;46.704;38.274;2023-02-28T16:14:27;20.20;;;9.38;;
75864;SDS011;64510;46.704;38.274;2023-02-28T16:16:56;12.68;;;5.93;;
75864;SDS011;64510;46.704;38.274;2023-02-28T16:19:27;8.70;;;5.95;;
75864;SDS011;64510;46.704;38.274;2023-02-28T16:21:53;11.23;;;7.03;;
75864;SDS011;64510;46.704;38.274;2023-02-28T16:24:19;9.85;;;6.15;;
75864;SDS011;64510;46.704;38.274;2023-02-28T16:26:46;9.43;;;5.45;;
75864;SDS011;64510;46.704;38.274;2023-02-28T16:29:15;13.73;;;6.72;;
75864;SDS011;64510;46.704;38.274;2023-02-28T16:31:52;11.57;;;6.90;;
75864;SDS011;64510;46.704;38.274;2023-02-28T16:34:19;13.82;;;7.03;;
75864;SDS011;64510;46.704;38.274;2023-02-28T16:36:49;13.55;;;6.35;;
75864;SDS011;64510;46.704;38.274;2023-02-28T16:39:16;8.70;;;6.47;;
75864;SDS011;64510;46.704;38.274;2023-02-28T16:41:43;13.55;;;7.10;;
75864;SDS011;64510;46.704;38.274;2023-02-28T16:44:12;10.55;;;6.10;;
75864;SDS011;64510;46.704;38.274;2023-02-28T16:46:47;17.75;;;7.00;;
75864;SDS011;64510;46.704;38.274;2023-02-28T16:49:13;25.08;;;10.60;;
75864;SDS011;64510;46.704;38.274;2023-02-28T16:51:39;21.25;;;9.18;;
75864;SDS011;64510;46.704;38.274;2023-02-28T16:54:05;21.38;;;9.80;;
75864;SDS011;64510;46.704;38.274;2023-02-28T16:56:33;21.67;;;8.63;;
75864;SDS011;64510;46.704;38.274;2023-02-28T16:59:00;26.05;;;9.68;;
75864;SDS011;64510;46.704;38.274;2023-02-28T17:01:28;14.82;;;9.25;;
75864;SDS011;64510;46.704;38.274;2023-02-28T17:03:54;17.92;;;7.53;;
75864;SDS011;64510;46.704;38.274;2023-02-28T17:06:22;13.77;;;7.70;;
75864;SDS011;64510;46.704;38.274;2023-02-28T17:08:50;15.82;;;7.15;;
75864;SDS011;64510;46.704;38.274;2023-02-28T17:11:17;15.52;;;8.02;;
75864;SDS011;64510;46.704;38.274;2023-02-28T17:13:44;15.05;;;8.23;;
75864;SDS011;64510;46.704;38.274;2023-02-28T17:16:29;15.45;;;8.02;;
75864;SDS011;64510;46.704;38.274;2023-02-28T17:18:58;12.23;;;6.10;;
75864;SDS011;64510;46.704;38.274;2023-02-28T17:21:31;12.68;;;7.53;;
75864;SDS011;64510;46.704;38.274;2023-02-28T17:24:00;13.30;;;7.47;;